N612HS KJAX-
Flight info
| Callsign | N612HS |
|---|---|
| Flight time | N/A |
| Altitude | VFR |
| Route | |
| Aircraft | PA24/L-DOV/C |
Departure
| Time | 2026-05-03 22:21 |
|---|---|
| Airport | Jacksonville International Airport (KJAX) |
Arrival
| Time | N/A |
|---|---|
| Airport | - |
| Time | Latitude | Longitude | Altitude | Speed | Heading |
|---|---|---|---|---|---|
| 2026-05-03 22:07 | 30.49735 | -81.67841 | 32 ft | 0 kts | 276° |
| 2026-05-03 22:07 | 30.49734 | -81.67846 | 32 ft | 5 kts | 231° |
| 2026-05-03 22:08 | 30.49664 | -81.67863 | 31 ft | 11 kts | 234° |
| 2026-05-03 22:08 | 30.49701 | -81.67916 | 31 ft | 19 kts | 359° |
| 2026-05-03 22:08 | 30.49823 | -81.67898 | 31 ft | 18 kts | 353° |
| 2026-05-03 22:08 | 30.49945 | -81.67940 | 30 ft | 18 kts | 342° |
| 2026-05-03 22:09 | 30.50044 | -81.67998 | 32 ft | 14 kts | 294° |
| 2026-05-03 22:09 | 30.50023 | -81.68114 | 33 ft | 16 kts | 251° |
| 2026-05-03 22:09 | 30.49980 | -81.68246 | 32 ft | 19 kts | 248° |
| 2026-05-03 22:10 | 30.49848 | -81.68684 | 31 ft | 29 kts | 252° |
| 2026-05-03 22:10 | 30.49784 | -81.68893 | 34 ft | 26 kts | 249° |
| 2026-05-03 22:10 | 30.49727 | -81.69084 | 34 ft | 25 kts | 250° |
| 2026-05-03 22:10 | 30.49675 | -81.69258 | 36 ft | 25 kts | 251° |
| 2026-05-03 22:11 | 30.49612 | -81.69468 | 34 ft | 29 kts | 250° |
| 2026-05-03 22:11 | 30.49544 | -81.69678 | 32 ft | 29 kts | 250° |
| 2026-05-03 22:11 | 30.49491 | -81.69858 | 27 ft | 12 kts | 251° |
| 2026-05-03 22:11 | 30.49490 | -81.69922 | 27 ft | 8 kts | 305° |
| 2026-05-03 22:12 | 30.49534 | -81.69947 | 28 ft | 0 kts | 342° |
| 2026-05-03 22:19 | 30.49569 | -81.69962 | 28 ft | 17 kts | 338° |
| 2026-05-03 22:19 | 30.49635 | -81.69950 | 28 ft | 0 kts | 72° |
| 2026-05-03 22:20 | 30.49732 | -81.69639 | 38 ft | 71 kts | 70° |
| 2026-05-03 22:20 | 30.49921 | -81.69049 | 176 ft | 85 kts | 73° |
| 2026-05-03 22:21 | 30.50133 | -81.68387 | 436 ft | 94 kts | 74° |
| 2026-05-03 22:21 | 30.50325 | -81.67622 | 717 ft | 100 kts | 77° |
| 2026-05-03 22:21 | 30.50493 | -81.66825 | 1061 ft | 107 kts | 75° |
| 2026-05-03 22:21 | 30.50660 | -81.66000 | 1396 ft | 108 kts | 75° |
| 2026-05-03 22:22 | 30.50977 | -81.65256 | 1824 ft | 100 kts | 37° |
| 2026-05-03 22:22 | 30.51610 | -81.64983 | 2142 ft | 103 kts | 7° |
| 2026-05-03 22:22 | 30.52350 | -81.65040 | 2400 ft | 110 kts | 354° |
| 2026-05-03 22:22 | 30.53143 | -81.65197 | 2509 ft | 124 kts | 351° |
| 2026-05-03 22:23 | 30.54020 | -81.65406 | 2618 ft | 134 kts | 352° |
| 2026-05-03 22:23 | 30.54948 | -81.65705 | 2648 ft | 143 kts | 348° |
| 2026-05-03 22:23 | 30.55922 | -81.66008 | 2685 ft | 147 kts | 349° |
| 2026-05-03 22:23 | 30.56926 | -81.66275 | 2733 ft | 148 kts | 346° |
| 2026-05-03 22:24 | 30.57914 | -81.66601 | 2771 ft | 148 kts | 344° |
| 2026-05-03 22:24 | 30.58756 | -81.66541 | 3171 ft | 129 kts | 52° |
| 2026-05-03 22:24 | 30.58736 | -81.65476 | 3278 ft | 139 kts | 109° |
| 2026-05-03 22:24 | 30.58356 | -81.64442 | 3458 ft | 142 kts | 112° |
| 2026-05-03 22:25 | 30.57913 | -81.63349 | 3105 ft | 170 kts | 118° |
| 2026-05-03 22:25 | 30.57290 | -81.62228 | 3206 ft | 159 kts | 126° |
| 2026-05-03 22:25 | 30.56769 | -81.61100 | 3235 ft | 158 kts | 114° |
| 2026-05-03 22:25 | 30.56313 | -81.59936 | 3252 ft | 158 kts | 118° |
| 2026-05-03 22:26 | 30.55563 | -81.59007 | 3285 ft | 160 kts | 139° |
| 2026-05-03 22:26 | 30.54677 | -81.58214 | 3305 ft | 161 kts | 140° |
| 2026-05-03 22:26 | 30.53796 | -81.57393 | 3328 ft | 163 kts | 146° |
| 2026-05-03 22:26 | 30.52891 | -81.56588 | 3346 ft | 164 kts | 140° |
| 2026-05-03 22:27 | 30.52016 | -81.55728 | 3374 ft | 165 kts | 136° |
| 2026-05-03 22:27 | 30.51152 | -81.54853 | 3363 ft | 166 kts | 142° |
| 2026-05-03 22:27 | 30.50213 | -81.54057 | 3335 ft | 168 kts | 141° |
| 2026-05-03 22:27 | 30.49290 | -81.53224 | 3328 ft | 168 kts | 140° |
| 2026-05-03 22:28 | 30.48367 | -81.52381 | 3305 ft | 170 kts | 137° |
| 2026-05-03 22:28 | 30.47539 | -81.51344 | 3015 ft | 177 kts | 126° |
| 2026-05-03 22:28 | 30.46856 | -81.50320 | 3480 ft | 144 kts | 127° |
| 2026-05-03 22:28 | 30.46090 | -81.49507 | 3508 ft | 156 kts | 140° |
| 2026-05-03 22:29 | 30.45221 | -81.48704 | 3505 ft | 163 kts | 144° |
| 2026-05-03 22:29 | 30.44345 | -81.47859 | 3502 ft | 165 kts | 140° |
| 2026-05-03 22:29 | 30.43431 | -81.47033 | 3499 ft | 167 kts | 139° |
| 2026-05-03 22:29 | 30.42560 | -81.46132 | 3494 ft | 168 kts | 139° |
| 2026-05-03 22:30 | 30.41706 | -81.45204 | 3499 ft | 168 kts | 136° |
| 2026-05-03 22:30 | 30.40755 | -81.44419 | 3500 ft | 168 kts | 149° |
| 2026-05-03 22:30 | 30.39772 | -81.43680 | 3494 ft | 169 kts | 147° |
| 2026-05-03 22:30 | 30.38798 | -81.42919 | 3497 ft | 169 kts | 146° |
| 2026-05-03 22:31 | 30.37875 | -81.42101 | 3498 ft | 170 kts | 147° |
| 2026-05-03 22:31 | 30.36894 | -81.41346 | 3501 ft | 169 kts | 149° |
| 2026-05-03 22:31 | 30.35834 | -81.40738 | 3499 ft | 168 kts | 159° |
| 2026-05-03 22:31 | 30.34779 | -81.40165 | 3496 ft | 168 kts | 155° |
| 2026-05-03 22:32 | 30.33712 | -81.39650 | 3502 ft | 170 kts | 159° |
| 2026-05-03 22:32 | 30.32636 | -81.39077 | 3498 ft | 169 kts | 154° |
| 2026-05-03 22:32 | 30.31583 | -81.38465 | 3498 ft | 168 kts | 161° |
| 2026-05-03 22:32 | 30.30454 | -81.38136 | 3500 ft | 167 kts | 172° |
| 2026-05-03 22:33 | 30.29331 | -81.37847 | 3501 ft | 166 kts | 169° |
| 2026-05-03 22:33 | 30.28201 | -81.37561 | 3497 ft | 165 kts | 172° |
| 2026-05-03 22:33 | 30.27085 | -81.37224 | 3495 ft | 166 kts | 172° |
| 2026-05-03 22:33 | 30.25985 | -81.36839 | 3501 ft | 165 kts | 161° |
| 2026-05-03 22:34 | 30.24868 | -81.36553 | 3498 ft | 164 kts | 173° |
| 2026-05-03 22:34 | 30.23744 | -81.36333 | 3497 ft | 164 kts | 174° |
| 2026-05-03 22:34 | 30.22621 | -81.36106 | 3488 ft | 164 kts | 172° |
| 2026-05-03 22:34 | 30.21504 | -81.35834 | 3489 ft | 164 kts | 175° |
| 2026-05-03 22:35 | 30.20371 | -81.35676 | 3491 ft | 163 kts | 179° |
| 2026-05-03 22:35 | 30.19252 | -81.35530 | 3492 ft | 162 kts | 177° |
| 2026-05-03 22:35 | 30.18130 | -81.35350 | 3492 ft | 163 kts | 177° |
| 2026-05-03 22:35 | 30.17008 | -81.35233 | 3498 ft | 162 kts | 172° |
| 2026-05-03 22:36 | 30.15899 | -81.35050 | 3502 ft | 162 kts | 179° |
| 2026-05-03 22:36 | 30.14781 | -81.34918 | 3561 ft | 157 kts | 169° |
| 2026-05-03 22:36 | 30.13730 | -81.34684 | 3657 ft | 157 kts | 178° |
| 2026-05-03 22:36 | 30.12606 | -81.34497 | 3504 ft | 168 kts | 173° |
| 2026-05-03 22:37 | 30.11494 | -81.34212 | 3575 ft | 164 kts | 170° |
| 2026-05-03 22:37 | 30.10374 | -81.33894 | 3566 ft | 167 kts | 175° |
| 2026-05-03 22:37 | 30.09238 | -81.33692 | 3566 ft | 164 kts | 173° |
| 2026-05-03 22:37 | 30.08101 | -81.33478 | 3549 ft | 166 kts | 179° |
| 2026-05-03 22:38 | 30.06957 | -81.33350 | 3548 ft | 165 kts | 172° |
| 2026-05-03 22:38 | 30.05824 | -81.33093 | 3556 ft | 166 kts | 180° |
| 2026-05-03 22:38 | 30.04741 | -81.32861 | 3821 ft | 148 kts | 169° |
| 2026-05-03 22:38 | 30.03800 | -81.32567 | 4288 ft | 129 kts | 174° |
| 2026-05-03 22:39 | 30.02963 | -81.32351 | 4687 ft | 118 kts | 175° |
| 2026-05-03 22:39 | 30.02193 | -81.32125 | 5077 ft | 109 kts | 174° |
| 2026-05-03 22:39 | 30.01500 | -81.31880 | 5451 ft | 104 kts | 174° |
| 2026-05-03 22:39 | 30.00732 | -81.31620 | 5480 ft | 129 kts | 174° |
| 2026-05-03 22:40 | 29.99817 | -81.31346 | 5502 ft | 143 kts | 174° |
| 2026-05-03 22:40 | 29.98828 | -81.31060 | 5509 ft | 149 kts | 174° |
| 2026-05-03 22:40 | 29.97805 | -81.30771 | 5515 ft | 154 kts | 174° |
| 2026-05-03 22:40 | 29.96770 | -81.30482 | 5510 ft | 156 kts | 174° |
| 2026-05-03 22:41 | 29.95700 | -81.30171 | 5514 ft | 159 kts | 173° |
| 2026-05-03 22:41 | 29.94639 | -81.29799 | 5508 ft | 161 kts | 171° |
| 2026-05-03 22:41 | 29.93563 | -81.29421 | 5513 ft | 162 kts | 171° |
| 2026-05-03 22:41 | 29.92479 | -81.29041 | 5517 ft | 164 kts | 171° |
| 2026-05-03 22:42 | 29.91387 | -81.28642 | 5521 ft | 164 kts | 169° |
| 2026-05-03 22:42 | 29.90318 | -81.28201 | 5540 ft | 163 kts | 168° |
| 2026-05-03 22:42 | 29.89251 | -81.27720 | 5554 ft | 165 kts | 166° |
| 2026-05-03 22:42 | 29.88198 | -81.27191 | 5559 ft | 165 kts | 163° |
| 2026-05-03 22:43 | 29.87166 | -81.26592 | 5575 ft | 166 kts | 160° |
| 2026-05-03 22:43 | 29.86152 | -81.25932 | 5579 ft | 168 kts | 157° |
| 2026-05-03 22:43 | 29.85169 | -81.25190 | 5478 ft | 174 kts | 153° |
| 2026-05-03 22:43 | 29.84194 | -81.24437 | 5566 ft | 171 kts | 161° |
| 2026-05-03 22:44 | 29.83072 | -81.24019 | 5537 ft | 168 kts | 179° |
| 2026-05-03 22:44 | 29.81928 | -81.24016 | 5505 ft | 162 kts | 193° |
| 2026-05-03 22:44 | 29.80832 | -81.23922 | 5497 ft | 160 kts | 180° |
| 2026-05-03 22:44 | 29.79725 | -81.23771 | 5496 ft | 159 kts | 182° |
| 2026-05-03 22:45 | 29.78627 | -81.23624 | 5476 ft | 161 kts | 181° |
| 2026-05-03 22:45 | 29.77579 | -81.23468 | 5485 ft | 159 kts | 182° |
| 2026-05-03 22:45 | 29.76489 | -81.23287 | 5497 ft | 158 kts | 181° |
| 2026-05-03 22:45 | 29.75404 | -81.23123 | 5500 ft | 157 kts | 181° |
| 2026-05-03 22:46 | 29.74306 | -81.22960 | 5499 ft | 160 kts | 181° |
| 2026-05-03 22:46 | 29.73200 | -81.22787 | 5492 ft | 161 kts | 181° |
| 2026-05-03 22:46 | 29.72098 | -81.22606 | 5495 ft | 159 kts | 181° |
| 2026-05-03 22:46 | 29.71008 | -81.22422 | 5489 ft | 158 kts | 181° |
| 2026-05-03 22:47 | 29.69915 | -81.22237 | 5486 ft | 159 kts | 181° |
| 2026-05-03 22:47 | 29.68823 | -81.22019 | 5488 ft | 161 kts | 179° |
| 2026-05-03 22:47 | 29.67796 | -81.22141 | 5849 ft | 133 kts | 214° |
| 2026-05-03 22:47 | 29.67235 | -81.22824 | 6238 ft | 110 kts | 254° |
| 2026-05-03 22:48 | 29.67067 | -81.23666 | 6424 ft | 109 kts | 250° |
| 2026-05-03 22:48 | 29.66810 | -81.24477 | 6492 ft | 118 kts | 250° |
| 2026-05-03 22:48 | 29.66517 | -81.25386 | 6516 ft | 124 kts | 251° |
| 2026-05-03 22:48 | 29.66218 | -81.26338 | 6522 ft | 128 kts | 251° |
| 2026-05-03 22:49 | 29.65912 | -81.27317 | 6551 ft | 129 kts | 251° |
| 2026-05-03 22:49 | 29.65606 | -81.28310 | 6531 ft | 133 kts | 251° |
| 2026-05-03 22:49 | 29.65295 | -81.29317 | 6526 ft | 134 kts | 251° |
| 2026-05-03 22:49 | 29.64981 | -81.30329 | 6527 ft | 135 kts | 251° |
| 2026-05-03 22:50 | 29.64665 | -81.31347 | 6530 ft | 136 kts | 251° |
| 2026-05-03 22:50 | 29.64352 | -81.32351 | 6534 ft | 133 kts | 251° |
| 2026-05-03 22:50 | 29.64046 | -81.33349 | 6526 ft | 132 kts | 251° |
| 2026-05-03 22:50 | 29.63738 | -81.34334 | 6524 ft | 130 kts | 251° |
| 2026-05-03 22:51 | 29.63437 | -81.35306 | 6525 ft | 128 kts | 251° |
| 2026-05-03 22:51 | 29.63137 | -81.36268 | 6523 ft | 127 kts | 251° |
| 2026-05-03 22:51 | 29.62836 | -81.37226 | 6528 ft | 127 kts | 251° |
| 2026-05-03 22:51 | 29.62538 | -81.38183 | 6527 ft | 127 kts | 251° |
| 2026-05-03 22:52 | 29.62240 | -81.39135 | 6526 ft | 126 kts | 251° |
| 2026-05-03 22:52 | 29.61943 | -81.40082 | 6528 ft | 126 kts | 250° |
| 2026-05-03 22:52 | 29.61644 | -81.41030 | 6529 ft | 126 kts | 250° |
| 2026-05-03 22:52 | 29.61344 | -81.41979 | 6525 ft | 126 kts | 250° |
| 2026-05-03 22:53 | 29.61049 | -81.42909 | 6528 ft | 125 kts | 250° |
| 2026-05-03 22:53 | 29.60747 | -81.43848 | 6528 ft | 126 kts | 250° |
| 2026-05-03 22:53 | 29.60445 | -81.44789 | 6525 ft | 126 kts | 250° |
| 2026-05-03 22:53 | 29.60144 | -81.45733 | 6528 ft | 126 kts | 250° |
| 2026-05-03 22:54 | 29.59843 | -81.46675 | 6527 ft | 125 kts | 250° |
| 2026-05-03 22:54 | 29.59541 | -81.47615 | 6526 ft | 126 kts | 250° |
| 2026-05-03 22:54 | 29.59239 | -81.48558 | 6527 ft | 126 kts | 250° |
| 2026-05-03 22:54 | 29.58935 | -81.49498 | 6525 ft | 125 kts | 250° |
| 2026-05-03 22:55 | 29.58634 | -81.50432 | 6528 ft | 125 kts | 250° |
| 2026-05-03 22:55 | 29.58342 | -81.51376 | 6524 ft | 126 kts | 251° |
| 2026-05-03 22:55 | 29.58051 | -81.52328 | 6527 ft | 127 kts | 251° |
| 2026-05-03 22:55 | 29.57756 | -81.53295 | 6530 ft | 128 kts | 251° |
| 2026-05-03 22:56 | 29.57461 | -81.54262 | 6529 ft | 129 kts | 251° |
| 2026-05-03 22:56 | 29.57166 | -81.55234 | 6526 ft | 129 kts | 251° |
| 2026-05-03 22:56 | 29.56865 | -81.56208 | 6531 ft | 130 kts | 251° |
| 2026-05-03 22:56 | 29.56561 | -81.57183 | 6526 ft | 130 kts | 251° |
| 2026-05-03 22:57 | 29.56293 | -81.58168 | 6528 ft | 129 kts | 256° |
| 2026-05-03 22:57 | 29.56075 | -81.59174 | 6524 ft | 130 kts | 255° |
| 2026-05-03 22:57 | 29.55848 | -81.60163 | 6525 ft | 129 kts | 255° |
| 2026-05-03 22:57 | 29.55619 | -81.61167 | 6522 ft | 127 kts | 255° |
| 2026-05-03 22:58 | 29.55395 | -81.62143 | 6523 ft | 126 kts | 255° |
| 2026-05-03 22:58 | 29.55172 | -81.63112 | 6524 ft | 125 kts | 255° |
| 2026-05-03 22:58 | 29.54951 | -81.64080 | 6526 ft | 126 kts | 255° |
| 2026-05-03 22:58 | 29.54730 | -81.65050 | 6526 ft | 126 kts | 255° |
| 2026-05-03 22:59 | 29.54583 | -81.65693 | 6523 ft | 125 kts | 255° |
| 2026-05-03 22:59 | 29.54292 | -81.66977 | 6521 ft | 125 kts | 255° |
| 2026-05-03 22:59 | 29.54070 | -81.67946 | 6525 ft | 126 kts | 255° |
| 2026-05-03 22:59 | 29.53846 | -81.68910 | 6523 ft | 124 kts | 255° |
| 2026-05-03 23:00 | 29.53621 | -81.69866 | 6521 ft | 124 kts | 255° |
| 2026-05-03 23:00 | 29.53469 | -81.70511 | 6520 ft | 124 kts | 255° |
| 2026-05-03 23:00 | 29.53243 | -81.71465 | 6522 ft | 124 kts | 255° |
| 2026-05-03 23:00 | 29.53019 | -81.72425 | 6523 ft | 124 kts | 255° |
| 2026-05-03 23:01 | 29.52794 | -81.73383 | 6525 ft | 124 kts | 255° |
| 2026-05-03 23:01 | 29.52571 | -81.74330 | 6523 ft | 125 kts | 255° |
| 2026-05-03 23:01 | 29.52342 | -81.75300 | 6522 ft | 124 kts | 254° |
| 2026-05-03 23:01 | 29.52119 | -81.76235 | 6520 ft | 123 kts | 255° |
| 2026-05-03 23:02 | 29.51892 | -81.77179 | 6519 ft | 123 kts | 254° |
| 2026-05-03 23:02 | 29.51666 | -81.78122 | 6522 ft | 123 kts | 254° |
| 2026-05-03 23:02 | 29.51439 | -81.79067 | 6519 ft | 123 kts | 254° |
| 2026-05-03 23:02 | 29.51211 | -81.80016 | 6523 ft | 124 kts | 254° |
| 2026-05-03 23:03 | 29.50983 | -81.80974 | 6518 ft | 123 kts | 255° |
| 2026-05-03 23:03 | 29.50759 | -81.81920 | 6518 ft | 123 kts | 255° |
| 2026-05-03 23:03 | 29.50520 | -81.82855 | 6519 ft | 122 kts | 254° |
| 2026-05-03 23:03 | 29.50281 | -81.83791 | 6518 ft | 122 kts | 254° |
| 2026-05-03 23:04 | 29.50041 | -81.84725 | 6519 ft | 122 kts | 254° |
| 2026-05-03 23:04 | 29.49798 | -81.85664 | 6518 ft | 123 kts | 254° |
| 2026-05-03 23:04 | 29.49562 | -81.86609 | 6517 ft | 124 kts | 254° |
| 2026-05-03 23:04 | 29.49328 | -81.87561 | 6518 ft | 124 kts | 254° |
| 2026-05-03 23:05 | 29.49092 | -81.88512 | 6516 ft | 124 kts | 254° |
| 2026-05-03 23:05 | 29.48854 | -81.89466 | 6517 ft | 125 kts | 254° |
| 2026-05-03 23:05 | 29.48613 | -81.90426 | 6516 ft | 125 kts | 254° |
| 2026-05-03 23:05 | 29.48369 | -81.91387 | 6519 ft | 125 kts | 254° |
| 2026-05-03 23:06 | 29.48124 | -81.92348 | 6514 ft | 126 kts | 254° |
| 2026-05-03 23:06 | 29.47881 | -81.93312 | 6515 ft | 126 kts | 254° |
| 2026-05-03 23:06 | 29.47637 | -81.94275 | 6516 ft | 126 kts | 253° |
| 2026-05-03 23:06 | 29.47389 | -81.95241 | 6510 ft | 126 kts | 254° |
| 2026-05-03 23:07 | 29.47141 | -81.96210 | 6515 ft | 127 kts | 253° |
| 2026-05-03 23:07 | 29.46891 | -81.97180 | 6516 ft | 127 kts | 253° |
| 2026-05-03 23:07 | 29.46644 | -81.98149 | 6514 ft | 126 kts | 253° |
| 2026-05-03 23:07 | 29.46399 | -81.99114 | 6514 ft | 126 kts | 253° |
| 2026-05-03 23:08 | 29.46156 | -82.00078 | 6512 ft | 126 kts | 253° |
| 2026-05-03 23:08 | 29.45914 | -82.01041 | 6506 ft | 126 kts | 253° |
| 2026-05-03 23:08 | 29.45671 | -82.02005 | 6508 ft | 126 kts | 253° |
| 2026-05-03 23:08 | 29.45427 | -82.02968 | 6514 ft | 126 kts | 253° |
| 2026-05-03 23:09 | 29.45173 | -82.03931 | 6509 ft | 127 kts | 253° |
| 2026-05-03 23:09 | 29.44919 | -82.04898 | 6511 ft | 126 kts | 253° |
| 2026-05-03 23:09 | 29.44667 | -82.05864 | 6510 ft | 126 kts | 253° |
| 2026-05-03 23:09 | 29.44412 | -82.06830 | 6513 ft | 127 kts | 252° |
| 2026-05-03 23:10 | 29.44099 | -82.07779 | 6504 ft | 128 kts | 249° |
| 2026-05-03 23:10 | 29.43776 | -82.08724 | 6504 ft | 128 kts | 249° |
| 2026-05-03 23:10 | 29.43445 | -82.09676 | 6504 ft | 129 kts | 249° |
| 2026-05-03 23:10 | 29.43108 | -82.10627 | 6501 ft | 128 kts | 249° |
| 2026-05-03 23:11 | 29.42775 | -82.11573 | 6501 ft | 128 kts | 249° |
| 2026-05-03 23:11 | 29.42439 | -82.12526 | 6499 ft | 129 kts | 249° |
| 2026-05-03 23:11 | 29.42104 | -82.13480 | 6498 ft | 129 kts | 249° |
| 2026-05-03 23:11 | 29.41769 | -82.14438 | 6499 ft | 130 kts | 249° |
| 2026-05-03 23:12 | 29.41434 | -82.15400 | 6495 ft | 130 kts | 249° |
| 2026-05-03 23:12 | 29.41100 | -82.16365 | 6492 ft | 130 kts | 249° |
| 2026-05-03 23:12 | 29.40761 | -82.17328 | 6495 ft | 131 kts | 249° |
| 2026-05-03 23:12 | 29.40416 | -82.18296 | 6494 ft | 131 kts | 249° |
| 2026-05-03 23:13 | 29.40066 | -82.19255 | 6497 ft | 131 kts | 249° |
| 2026-05-03 23:13 | 29.39715 | -82.20226 | 6496 ft | 132 kts | 249° |
| 2026-05-03 23:13 | 29.39371 | -82.21196 | 6499 ft | 131 kts | 249° |
| 2026-05-03 23:13 | 29.39026 | -82.22159 | 6490 ft | 131 kts | 249° |
| 2026-05-03 23:14 | 29.38682 | -82.23128 | 6496 ft | 131 kts | 249° |
| 2026-05-03 23:14 | 29.38334 | -82.24090 | 6494 ft | 130 kts | 249° |
| 2026-05-03 23:14 | 29.37984 | -82.25051 | 6490 ft | 131 kts | 249° |
| 2026-05-03 23:14 | 29.37632 | -82.26018 | 6495 ft | 131 kts | 249° |
| 2026-05-03 23:15 | 29.37280 | -82.26990 | 6490 ft | 132 kts | 249° |
| 2026-05-03 23:15 | 29.36926 | -82.27962 | 6494 ft | 132 kts | 249° |
| 2026-05-03 23:15 | 29.36574 | -82.28934 | 6491 ft | 132 kts | 249° |
| 2026-05-03 23:15 | 29.36220 | -82.29906 | 6491 ft | 132 kts | 249° |
| 2026-05-03 23:16 | 29.35860 | -82.30880 | 6491 ft | 133 kts | 249° |
| 2026-05-03 23:16 | 29.35499 | -82.31860 | 6490 ft | 134 kts | 249° |
| 2026-05-03 23:16 | 29.35140 | -82.32841 | 6491 ft | 133 kts | 249° |
| 2026-05-03 23:16 | 29.34790 | -82.33815 | 6490 ft | 132 kts | 249° |
| 2026-05-03 23:17 | 29.34437 | -82.34787 | 6490 ft | 132 kts | 249° |
| 2026-05-03 23:17 | 29.34084 | -82.35762 | 6490 ft | 132 kts | 248° |
| 2026-05-03 23:17 | 29.33724 | -82.36733 | 6487 ft | 133 kts | 248° |
| 2026-05-03 23:17 | 29.33358 | -82.37707 | 6490 ft | 133 kts | 248° |
| 2026-05-03 23:18 | 29.32996 | -82.38684 | 6487 ft | 134 kts | 249° |
| 2026-05-03 23:18 | 29.32634 | -82.39661 | 6487 ft | 133 kts | 248° |
| 2026-05-03 23:18 | 29.32269 | -82.40629 | 6489 ft | 132 kts | 249° |
| 2026-05-03 23:18 | 29.31904 | -82.41594 | 6489 ft | 132 kts | 249° |
| 2026-05-03 23:19 | 29.31543 | -82.42553 | 6487 ft | 133 kts | 248° |
| 2026-05-03 23:19 | 29.31174 | -82.43522 | 6488 ft | 133 kts | 248° |
| 2026-05-03 23:19 | 29.30808 | -82.44491 | 6490 ft | 133 kts | 248° |
| 2026-05-03 23:19 | 29.30443 | -82.45461 | 6487 ft | 133 kts | 248° |
| 2026-05-03 23:20 | 29.30075 | -82.46436 | 6490 ft | 134 kts | 248° |
| 2026-05-03 23:20 | 29.29705 | -82.47410 | 6490 ft | 133 kts | 248° |
| 2026-05-03 23:20 | 29.29336 | -82.48386 | 6488 ft | 133 kts | 248° |
| 2026-05-03 23:20 | 29.28966 | -82.49362 | 6489 ft | 133 kts | 248° |
| 2026-05-03 23:21 | 29.28594 | -82.50338 | 6486 ft | 134 kts | 248° |
| 2026-05-03 23:21 | 29.28212 | -82.51314 | 6488 ft | 135 kts | 248° |
| 2026-05-03 23:21 | 29.27832 | -82.52296 | 6488 ft | 135 kts | 248° |
| 2026-05-03 23:21 | 29.27455 | -82.53278 | 6489 ft | 134 kts | 248° |
| 2026-05-03 23:22 | 29.26708 | -82.55245 | 6486 ft | 135 kts | 248° |
| 2026-05-03 23:22 | 29.26335 | -82.56229 | 6488 ft | 134 kts | 248° |
| 2026-05-03 23:22 | 29.25963 | -82.57206 | 6489 ft | 135 kts | 248° |
| 2026-05-03 23:23 | 29.25583 | -82.58194 | 6488 ft | 136 kts | 248° |
| 2026-05-03 23:23 | 29.25203 | -82.59184 | 6488 ft | 135 kts | 248° |
| 2026-05-03 23:23 | 29.24825 | -82.60167 | 6488 ft | 135 kts | 248° |
| 2026-05-03 23:23 | 29.24447 | -82.61152 | 6485 ft | 135 kts | 248° |
| 2026-05-03 23:24 | 29.24068 | -82.62139 | 6491 ft | 136 kts | 248° |
| 2026-05-03 23:24 | 29.23686 | -82.63132 | 6487 ft | 136 kts | 248° |
| 2026-05-03 23:24 | 29.23304 | -82.64122 | 6493 ft | 136 kts | 248° |
| 2026-05-03 23:24 | 29.22920 | -82.65114 | 6484 ft | 137 kts | 248° |
| 2026-05-03 23:25 | 29.22531 | -82.66113 | 6484 ft | 138 kts | 248° |
| 2026-05-03 23:25 | 29.22137 | -82.67114 | 6486 ft | 138 kts | 248° |
| 2026-05-03 23:25 | 29.21747 | -82.68108 | 6488 ft | 138 kts | 248° |
| 2026-05-03 23:25 | 29.21360 | -82.69109 | 6487 ft | 138 kts | 248° |
| 2026-05-03 23:26 | 29.20971 | -82.70116 | 6482 ft | 139 kts | 248° |
| 2026-05-03 23:26 | 29.20580 | -82.71125 | 6486 ft | 139 kts | 248° |
| 2026-05-03 23:26 | 29.20188 | -82.72137 | 6478 ft | 139 kts | 247° |
| 2026-05-03 23:26 | 29.19793 | -82.73148 | 6482 ft | 139 kts | 248° |
| 2026-05-03 23:27 | 29.19398 | -82.74161 | 6477 ft | 140 kts | 248° |
| 2026-05-03 23:27 | 29.18999 | -82.75189 | 6488 ft | 143 kts | 248° |
| 2026-05-03 23:27 | 29.18609 | -82.76242 | 6493 ft | 144 kts | 250° |
| 2026-05-03 23:27 | 29.18322 | -82.77342 | 6492 ft | 145 kts | 256° |
| 2026-05-03 23:28 | 29.18077 | -82.78464 | 6493 ft | 146 kts | 256° |
| 2026-05-03 23:28 | 29.17830 | -82.79594 | 6491 ft | 147 kts | 256° |
| 2026-05-03 23:28 | 29.17566 | -82.80722 | 6483 ft | 147 kts | 253° |
| 2026-05-03 23:28 | 29.17243 | -82.81827 | 6488 ft | 146 kts | 252° |
| 2026-05-03 23:29 | 29.16917 | -82.82937 | 6488 ft | 148 kts | 252° |
| 2026-05-03 23:29 | 29.16592 | -82.84051 | 6486 ft | 148 kts | 252° |
| 2026-05-03 23:29 | 29.16267 | -82.85165 | 6488 ft | 147 kts | 252° |
| 2026-05-03 23:29 | 29.15940 | -82.86273 | 6481 ft | 147 kts | 252° |
| 2026-05-03 23:30 | 29.15681 | -82.87406 | 6481 ft | 148 kts | 259° |
| 2026-05-03 23:30 | 29.15487 | -82.88557 | 6489 ft | 147 kts | 259° |
| 2026-05-03 23:30 | 29.15287 | -82.89705 | 6489 ft | 147 kts | 259° |
| 2026-05-03 23:30 | 29.15096 | -82.90850 | 6490 ft | 146 kts | 259° |
| 2026-05-03 23:31 | 29.14907 | -82.91993 | 6493 ft | 147 kts | 259° |
| 2026-05-03 23:31 | 29.14709 | -82.93146 | 6484 ft | 148 kts | 259° |
| 2026-05-03 23:31 | 29.14512 | -82.94299 | 6491 ft | 148 kts | 259° |
| 2026-05-03 23:31 | 29.14312 | -82.95436 | 6477 ft | 141 kts | 258° |
| 2026-05-03 23:32 | 29.14120 | -82.96509 | 6476 ft | 135 kts | 259° |
| 2026-05-03 23:32 | 29.13936 | -82.97539 | 6478 ft | 130 kts | 259° |
| 2026-05-03 23:32 | 29.13755 | -82.98538 | 6480 ft | 127 kts | 259° |
| 2026-05-03 23:32 | 29.13575 | -82.99543 | 6202 ft | 140 kts | 258° |
| 2026-05-03 23:33 | 29.13369 | -83.00665 | 5877 ft | 142 kts | 258° |
| 2026-05-03 23:33 | 29.13196 | -83.01736 | 5712 ft | 135 kts | 268° |
| 2026-05-03 23:33 | 29.13575 | -83.02716 | 5211 ft | 153 kts | 327° |
| 2026-05-03 23:33 | 29.14549 | -83.02314 | 4502 ft | 180 kts | 56° |
| 2026-05-03 23:34 | 29.14865 | -83.01016 | 4320 ft | 169 kts | 92° |
| 2026-05-03 23:34 | 29.14390 | -82.99748 | 3619 ft | 184 kts | 137° |
| 2026-05-03 23:34 | 29.13281 | -82.99150 | 3342 ft | 170 kts | 177° |
| 2026-05-03 23:34 | 29.12194 | -82.99460 | 2979 ft | 166 kts | 218° |
| 2026-05-03 23:35 | 29.11466 | -83.00450 | 2659 ft | 159 kts | 246° |
| 2026-05-03 23:35 | 29.11291 | -83.01627 | 2374 ft | 149 kts | 277° |
| 2026-05-03 23:35 | 29.11645 | -83.02721 | 1880 ft | 150 kts | 309° |
| 2026-05-03 23:35 | 29.12417 | -83.03452 | 1550 ft | 143 kts | 342° |
| 2026-05-03 23:36 | 29.13356 | -83.03363 | 1369 ft | 128 kts | 26° |
| 2026-05-03 23:36 | 29.13878 | -83.02650 | 1399 ft | 119 kts | 58° |
| 2026-05-03 23:36 | 29.14230 | -83.01788 | 1419 ft | 120 kts | 62° |
| 2026-05-03 23:36 | 29.14571 | -83.00918 | 1421 ft | 120 kts | 60° |
| 2026-05-03 23:37 | 29.14612 | -83.00004 | 1426 ft | 120 kts | 105° |
| 2026-05-03 23:37 | 29.14067 | -82.99288 | 1425 ft | 123 kts | 147° |
| 2026-05-03 23:37 | 29.13229 | -82.99098 | 1422 ft | 128 kts | 187° |
| 2026-05-03 23:37 | 29.12429 | -82.99525 | 1425 ft | 128 kts | 225° |
| 2026-05-03 23:38 | 29.11838 | -83.00289 | 1421 ft | 130 kts | 236° |
| 2026-05-03 23:38 | 29.11307 | -83.01099 | 1419 ft | 129 kts | 238° |
| 2026-05-03 23:38 | 29.10934 | -83.02055 | 1242 ft | 137 kts | 270° |
| 2026-05-03 23:38 | 29.11263 | -83.03020 | 1213 ft | 129 kts | 316° |
| 2026-05-03 23:39 | 29.11763 | -83.03871 | 783 ft | 132 kts | 313° |
| 2026-05-03 23:39 | 29.12508 | -83.04241 | 538 ft | 118 kts | 19° |
| 2026-05-03 23:39 | 29.12997 | -83.03536 | 381 ft | 112 kts | 62° |
| 2026-05-03 23:39 | 29.13248 | -83.02825 | 425 ft | 81 kts | 60° |
| 2026-05-03 23:40 | 29.13481 | -83.02257 | 470 ft | 82 kts | 49° |
| 2026-05-03 23:40 | 29.13964 | -83.02111 | 540 ft | 74 kts | 336° |
| 2026-05-03 23:40 | 29.14388 | -83.02504 | 527 ft | 83 kts | 318° |
| 2026-05-03 23:40 | 29.14716 | -83.03076 | 486 ft | 91 kts | 288° |
| 2026-05-03 23:41 | 29.14476 | -83.03754 | 369 ft | 107 kts | 226° |
| 2026-05-03 23:41 | 29.14010 | -83.04316 | 173 ft | 90 kts | 227° |
| 2026-05-03 23:41 | 29.13617 | -83.04802 | 24 ft | 73 kts | 231° |
| 2026-05-03 23:41 | 29.13358 | -83.05144 | 11 ft | 34 kts | 228° |
| 2026-05-03 23:42 | 29.13248 | -83.05283 | 11 ft | 18 kts | 230° |
| 2026-05-03 23:42 | 29.13203 | -83.05285 | 10 ft | 5 kts | 70° |
| 2026-05-03 23:42 | 29.13215 | -83.05260 | 11 ft | 3 kts | 4° |
| 2026-05-03 23:42 | 29.13239 | -83.05247 | 12 ft | 3 kts | 89° |
| 2026-05-03 23:43 | 29.13204 | -83.05289 | 10 ft | 0 kts | 249° |
| 2026-05-03 23:43 | 29.13199 | -83.05299 | 10 ft | 0 kts | 279° |
| 2026-05-03 23:44 | 29.13214 | -83.05313 | 10 ft | 11 kts | 17° |
| 2026-05-03 23:45 | 29.13394 | -83.05094 | 10 ft | 43 kts | 50° |
| 2026-05-03 23:45 | 29.13532 | -83.04907 | 8 ft | 22 kts | 45° |
| 2026-05-03 23:45 | 29.13475 | -83.04994 | 10 ft | 59 kts | 229° |
| 2026-05-03 23:45 | 29.13096 | -83.05470 | 169 ft | 88 kts | 231° |
| 2026-05-03 23:46 | 29.12661 | -83.05999 | 338 ft | 93 kts | 219° |
| 2026-05-03 23:46 | 29.12061 | -83.05959 | 501 ft | 96 kts | 141° |
| 2026-05-03 23:46 | 29.11508 | -83.05461 | 612 ft | 102 kts | 121° |
| 2026-05-03 23:46 | 29.11527 | -83.04725 | 712 ft | 96 kts | 41° |
| 2026-05-03 23:47 | 29.11984 | -83.04180 | 762 ft | 94 kts | 47° |
| 2026-05-03 23:47 | 29.12368 | -83.03561 | 796 ft | 93 kts | 52° |
| 2026-05-03 23:47 | 29.12736 | -83.02973 | 812 ft | 90 kts | 33° |
| 2026-05-03 23:47 | 29.13292 | -83.03034 | 766 ft | 89 kts | 329° |
| 2026-05-03 23:48 | 29.13766 | -83.03408 | 540 ft | 74 kts | 327° |
| 2026-05-03 23:48 | 29.14068 | -83.03855 | 350 ft | 73 kts | 286° |
| 2026-05-03 23:48 | 29.13944 | -83.04423 | 173 ft | 76 kts | 225° |
| 2026-05-03 23:48 | 29.13592 | -83.04834 | 21 ft | 65 kts | 232° |
| 2026-05-03 23:49 | 29.13352 | -83.05150 | 12 ft | 47 kts | 229° |
| 2026-05-03 23:49 | 29.13244 | -83.05228 | 11 ft | 8 kts | 153° |
| 2026-05-03 23:49 | 29.13239 | -83.05229 | 11 ft | 0 kts | 233° |
| 2026-05-03 23:50 | 29.13245 | -83.05236 | 14 ft | 0 kts | 141° |
| 2026-05-03 23:51 | 29.13246 | -83.05237 | 14 ft | 0 kts | 141° |
| 2026-05-03 23:54 | 29.13245 | -83.05237 | 14 ft | 0 kts | 141° |
| 2026-05-03 23:58 | 29.13206 | -83.05275 | 11 ft | 15 kts | 232° |
| 2026-05-03 23:58 | 29.13219 | -83.05312 | 11 ft | 23 kts | 19° |
| 2026-05-03 23:58 | 29.13509 | -83.04939 | 39 ft | 87 kts | 44° |
| 2026-05-03 23:58 | 29.13902 | -83.04420 | 262 ft | 92 kts | 43° |
| 2026-05-03 23:59 | 29.14316 | -83.03867 | 499 ft | 90 kts | 48° |
| 2026-05-03 23:59 | 29.14796 | -83.03467 | 722 ft | 88 kts | 354° |
| 2026-05-03 23:59 | 29.15341 | -83.03842 | 824 ft | 98 kts | 325° |
| 2026-05-03 23:59 | 29.15584 | -83.04551 | 938 ft | 107 kts | 258° |
| 2026-05-04 00:00 | 29.15140 | -83.05329 | 915 ft | 124 kts | 230° |
| 2026-05-04 00:00 | 29.14538 | -83.05962 | 911 ft | 113 kts | 226° |
| 2026-05-04 00:00 | 29.13955 | -83.06558 | 877 ft | 110 kts | 225° |
| 2026-05-04 00:00 | 29.13369 | -83.07181 | 705 ft | 115 kts | 223° |
| 2026-05-04 00:01 | 29.12707 | -83.07522 | 712 ft | 102 kts | 161° |
| 2026-05-04 00:01 | 29.12140 | -83.07051 | 534 ft | 101 kts | 126° |
| 2026-05-04 00:01 | 29.12284 | -83.06482 | 433 ft | 85 kts | 40° |
| 2026-05-04 00:01 | 29.12673 | -83.06004 | 197 ft | 74 kts | 47° |
| 2026-05-04 00:02 | 29.13003 | -83.05589 | 92 ft | 70 kts | 43° |
| 2026-05-04 00:02 | 29.13295 | -83.05220 | 14 ft | 51 kts | 42° |
| 2026-05-04 00:02 | 29.13609 | -83.04820 | 136 ft | 76 kts | 44° |
| 2026-05-04 00:02 | 29.13956 | -83.04339 | 360 ft | 79 kts | 47° |
| 2026-05-04 00:03 | 29.14375 | -83.03994 | 563 ft | 77 kts | 352° |
| 2026-05-04 00:03 | 29.14856 | -83.04353 | 642 ft | 85 kts | 324° |
| 2026-05-04 00:03 | 29.14967 | -83.04984 | 663 ft | 101 kts | 246° |
| 2026-05-04 00:03 | 29.14485 | -83.05607 | 689 ft | 107 kts | 228° |
| 2026-05-04 00:04 | 29.13935 | -83.06192 | 672 ft | 106 kts | 224° |
| 2026-05-04 00:04 | 29.13386 | -83.06744 | 656 ft | 104 kts | 224° |
| 2026-05-04 00:04 | 29.12873 | -83.07314 | 676 ft | 105 kts | 229° |
| 2026-05-04 00:04 | 29.12399 | -83.07907 | 734 ft | 97 kts | 232° |
| 2026-05-04 00:05 | 29.11899 | -83.08346 | 797 ft | 93 kts | 177° |
| 2026-05-04 00:05 | 29.11369 | -83.07930 | 740 ft | 99 kts | 106° |
| 2026-05-04 00:05 | 29.11606 | -83.07299 | 647 ft | 98 kts | 34° |
| 2026-05-04 00:05 | 29.12061 | -83.06791 | 409 ft | 84 kts | 47° |
| 2026-05-04 00:06 | 29.12420 | -83.06332 | 281 ft | 71 kts | 44° |
| 2026-05-04 00:06 | 29.12746 | -83.05918 | 159 ft | 71 kts | 42° |
| 2026-05-04 00:06 | 29.13072 | -83.05504 | 64 ft | 69 kts | 44° |
| 2026-05-04 00:06 | 29.13339 | -83.05161 | 13 ft | 43 kts | 44° |
| 2026-05-04 00:07 | 29.13441 | -83.05036 | 10 ft | 7 kts | 311° |
| 2026-05-04 00:07 | 29.13310 | -83.05199 | 12 ft | 37 kts | 229° |
| 2026-05-04 00:07 | 29.13212 | -83.05306 | 10 ft | 12 kts | 178° |
| 2026-05-04 00:07 | 29.13216 | -83.05259 | 10 ft | 6 kts | 69° |
| 2026-05-04 00:08 | 29.13227 | -83.05224 | 11 ft | 2 kts | 88° |
| 2026-05-04 00:08 | 29.13235 | -83.05227 | 12 ft | 0 kts | 232° |